sensor_id;sensor_type;location;lat;lon;timestamp;temperature;humidity
11991;DHT22;6055;52.522;13.446;2022-10-22T00:01:32;13.70;99.90
11991;DHT22;6055;52.522;13.446;2022-10-22T00:03:57;13.60;99.90
11991;DHT22;6055;52.522;13.446;2022-10-22T00:06:23;13.60;99.90
11991;DHT22;6055;52.522;13.446;2022-10-22T00:08:49;13.70;99.90
11991;DHT22;6055;52.522;13.446;2022-10-22T00:11:16;13.70;99.90
11991;DHT22;6055;52.522;13.446;2022-10-22T00:13:42;13.70;99.90
11991;DHT22;6055;52.522;13.446;2022-10-22T00:16:08;13.70;99.90
11991;DHT22;6055;52.522;13.446;2022-10-22T00:18:35;13.70;99.90
11991;DHT22;6055;52.522;13.446;2022-10-22T00:21:00;13.70;99.90
11991;DHT22;6055;52.522;13.446;2022-10-22T00:23:26;13.70;99.90
11991;DHT22;6055;52.522;13.446;2022-10-22T00:25:52;13.70;99.90
11991;DHT22;6055;52.522;13.446;2022-10-22T00:28:18;13.70;99.90
11991;DHT22;6055;52.522;13.446;2022-10-22T00:30:44;13.70;99.90
11991;DHT22;6055;52.522;13.446;2022-10-22T00:33:09;13.70;99.90
11991;DHT22;6055;52.522;13.446;2022-10-22T00:35:35;13.80;99.90
11991;DHT22;6055;52.522;13.446;2022-10-22T00:38:00;13.80;99.90
11991;DHT22;6055;52.522;13.446;2022-10-22T00:40:26;13.70;99.90
11991;DHT22;6055;52.522;13.446;2022-10-22T00:42:51;13.70;99.90
11991;DHT22;6055;52.522;13.446;2022-10-22T00:45:23;13.70;99.90
11991;DHT22;6055;52.522;13.446;2022-10-22T00:48:31;13.70;99.90
11991;DHT22;6055;52.522;13.446;2022-10-22T00:51:00;13.70;99.90
11991;DHT22;6055;52.522;13.446;2022-10-22T00:56:01;13.70;99.90
11991;DHT22;6055;52.522;13.446;2022-10-22T00:58:30;13.70;99.90
11991;DHT22;6055;52.522;13.446;2022-10-22T01:00:57;13.70;99.90
11991;DHT22;6055;52.522;13.446;2022-10-22T01:03:23;13.70;99.90
11991;DHT22;6055;52.522;13.446;2022-10-22T01:05:55;13.60;99.90
11991;DHT22;6055;52.522;13.446;2022-10-22T01:11:20;13.70;99.90
11991;DHT22;6055;52.522;13.446;2022-10-22T01:14:14;13.70;99.90
11991;DHT22;6055;52.522;13.446;2022-10-22T01:16:54;13.70;99.90
11991;DHT22;6055;52.522;13.446;2022-10-22T01:22:39;13.70;99.90
11991;DHT22;6055;52.522;13.446;2022-10-22T01:25:12;13.70;99.90
11991;DHT22;6055;52.522;13.446;2022-10-22T01:30:17;13.70;99.90
11991;DHT22;6055;52.522;13.446;2022-10-22T01:32:50;13.70;99.90
11991;DHT22;6055;52.522;13.446;2022-10-22T01:35:21;13.70;99.90
11991;DHT22;6055;52.522;13.446;2022-10-22T01:37:57;13.70;99.90
11991;DHT22;6055;52.522;13.446;2022-10-22T01:40:24;13.60;99.90
11991;DHT22;6055;52.522;13.446;2022-10-22T01:45:24;13.60;99.90
11991;DHT22;6055;52.522;13.446;2022-10-22T01:47:59;13.60;99.90
11991;DHT22;6055;52.522;13.446;2022-10-22T01:53:59;13.60;99.90
11991;DHT22;6055;52.522;13.446;2022-10-22T01:59:21;13.60;99.90
11991;DHT22;6055;52.522;13.446;2022-10-22T02:02:09;13.60;99.90
11991;DHT22;6055;52.522;13.446;2022-10-22T02:07:33;13.50;99.90
11991;DHT22;6055;52.522;13.446;2022-10-22T02:10:00;13.50;99.90
11991;DHT22;6055;52.522;13.446;2022-10-22T02:12:27;13.50;99.90
11991;DHT22;6055;52.522;13.446;2022-10-22T02:14:55;13.50;99.90
11991;DHT22;6055;52.522;13.446;2022-10-22T02:17:23;13.50;99.90
11991;DHT22;6055;52.522;13.446;2022-10-22T02:19:57;13.50;99.90
11991;DHT22;6055;52.522;13.446;2022-10-22T02:22:25;13.50;99.90
11991;DHT22;6055;52.522;13.446;2022-10-22T02:24:51;13.50;99.90
11991;DHT22;6055;52.522;13.446;2022-10-22T02:27:27;13.60;99.90
11991;DHT22;6055;52.522;13.446;2022-10-22T02:32:49;13.50;99.90
11991;DHT22;6055;52.522;13.446;2022-10-22T02:35:18;13.50;99.90
11991;DHT22;6055;52.522;13.446;2022-10-22T02:37:45;13.50;99.90
11991;DHT22;6055;52.522;13.446;2022-10-22T02:40:11;13.50;99.90
11991;DHT22;6055;52.522;13.446;2022-10-22T02:42:38;13.50;99.90
11991;DHT22;6055;52.522;13.446;2022-10-22T02:45:05;13.50;99.90
11991;DHT22;6055;52.522;13.446;2022-10-22T02:47:31;13.40;99.90
11991;DHT22;6055;52.522;13.446;2022-10-22T02:49:56;13.40;99.90
11991;DHT22;6055;52.522;13.446;2022-10-22T02:52:22;13.40;99.90
11991;DHT22;6055;52.522;13.446;2022-10-22T02:54:47;13.30;99.90
11991;DHT22;6055;52.522;13.446;2022-10-22T02:57:13;13.40;99.90
11991;DHT22;6055;52.522;13.446;2022-10-22T02:59:38;13.40;99.90
11991;DHT22;6055;52.522;13.446;2022-10-22T03:02:03;13.40;99.90
11991;DHT22;6055;52.522;13.446;2022-10-22T03:04:29;13.40;99.90
11991;DHT22;6055;52.522;13.446;2022-10-22T03:06:54;13.40;99.90
11991;DHT22;6055;52.522;13.446;2022-10-22T03:09:20;13.40;99.90
11991;DHT22;6055;52.522;13.446;2022-10-22T03:11:45;13.40;99.90
11991;DHT22;6055;52.522;13.446;2022-10-22T03:14:11;13.30;99.90
11991;DHT22;6055;52.522;13.446;2022-10-22T03:16:37;13.30;99.90
11991;DHT22;6055;52.522;13.446;2022-10-22T03:19:03;13.30;99.90
11991;DHT22;6055;52.522;13.446;2022-10-22T03:22:00;13.30;99.90
11991;DHT22;6055;52.522;13.446;2022-10-22T03:24:30;13.30;99.90
11991;DHT22;6055;52.522;13.446;2022-10-22T03:26:58;13.30;99.90
11991;DHT22;6055;52.522;13.446;2022-10-22T03:29:25;13.30;99.90
11991;DHT22;6055;52.522;13.446;2022-10-22T03:31:51;13.30;99.90
11991;DHT22;6055;52.522;13.446;2022-10-22T03:34:17;13.30;99.90
11991;DHT22;6055;52.522;13.446;2022-10-22T03:36:43;13.30;99.90
11991;DHT22;6055;52.522;13.446;2022-10-22T03:39:11;13.30;99.90
11991;DHT22;6055;52.522;13.446;2022-10-22T03:41:37;13.30;99.90
11991;DHT22;6055;52.522;13.446;2022-10-22T03:44:03;13.30;99.90
11991;DHT22;6055;52.522;13.446;2022-10-22T03:46:29;13.30;99.90
11991;DHT22;6055;52.522;13.446;2022-10-22T03:48:54;13.30;99.90
11991;DHT22;6055;52.522;13.446;2022-10-22T03:51:20;13.30;99.90
11991;DHT22;6055;52.522;13.446;2022-10-22T03:53:45;13.30;99.90
11991;DHT22;6055;52.522;13.446;2022-10-22T03:56:11;13.30;99.90
11991;DHT22;6055;52.522;13.446;2022-10-22T03:58:38;13.30;99.90
11991;DHT22;6055;52.522;13.446;2022-10-22T04:01:05;13.30;99.90
11991;DHT22;6055;52.522;13.446;2022-10-22T04:03:31;13.30;99.90
11991;DHT22;6055;52.522;13.446;2022-10-22T04:06:09;13.30;99.90
11991;DHT22;6055;52.522;13.446;2022-10-22T04:08:38;13.30;99.90
11991;DHT22;6055;52.522;13.446;2022-10-22T04:11:03;13.30;99.90
11991;DHT22;6055;52.522;13.446;2022-10-22T04:13:29;13.30;99.90
11991;DHT22;6055;52.522;13.446;2022-10-22T04:15:54;13.30;99.90
11991;DHT22;6055;52.522;13.446;2022-10-22T04:18:22;13.30;99.90
11991;DHT22;6055;52.522;13.446;2022-10-22T04:20:50;13.30;99.90
11991;DHT22;6055;52.522;13.446;2022-10-22T04:23:15;13.30;99.90
11991;DHT22;6055;52.522;13.446;2022-10-22T04:25:41;13.30;99.90
11991;DHT22;6055;52.522;13.446;2022-10-22T04:28:08;13.30;99.90
11991;DHT22;6055;52.522;13.446;2022-10-22T04:30:35;13.30;99.90
11991;DHT22;6055;52.522;13.446;2022-10-22T04:33:01;13.30;99.90
11991;DHT22;6055;52.522;13.446;2022-10-22T04:35:27;13.30;99.90
11991;DHT22;6055;52.522;13.446;2022-10-22T04:37:53;13.30;99.90
11991;DHT22;6055;52.522;13.446;2022-10-22T04:40:19;13.30;99.90
11991;DHT22;6055;52.522;13.446;2022-10-22T04:42:45;13.30;99.90
11991;DHT22;6055;52.522;13.446;2022-10-22T04:45:10;13.30;99.90
11991;DHT22;6055;52.522;13.446;2022-10-22T04:47:35;13.30;99.90
11991;DHT22;6055;52.522;13.446;2022-10-22T04:50:01;13.30;99.90
11991;DHT22;6055;52.522;13.446;2022-10-22T04:52:27;13.20;99.90
11991;DHT22;6055;52.522;13.446;2022-10-22T04:54:52;13.20;99.90
11991;DHT22;6055;52.522;13.446;2022-10-22T04:57:17;13.20;99.90
11991;DHT22;6055;52.522;13.446;2022-10-22T04:59:43;13.20;99.90
11991;DHT22;6055;52.522;13.446;2022-10-22T05:02:08;13.20;99.90
11991;DHT22;6055;52.522;13.446;2022-10-22T05:04:34;13.20;99.90
11991;DHT22;6055;52.522;13.446;2022-10-22T05:06:59;13.20;99.90
11991;DHT22;6055;52.522;13.446;2022-10-22T05:09:25;13.20;99.90
11991;DHT22;6055;52.522;13.446;2022-10-22T05:11:51;13.20;99.90
11991;DHT22;6055;52.522;13.446;2022-10-22T05:14:19;13.20;99.90
11991;DHT22;6055;52.522;13.446;2022-10-22T05:16:45;13.20;99.90
11991;DHT22;6055;52.522;13.446;2022-10-22T05:19:19;13.20;99.90
11991;DHT22;6055;52.522;13.446;2022-10-22T05:21:44;13.20;99.90
11991;DHT22;6055;52.522;13.446;2022-10-22T05:24:10;13.10;99.90
11991;DHT22;6055;52.522;13.446;2022-10-22T05:26:36;13.10;99.90
11991;DHT22;6055;52.522;13.446;2022-10-22T05:29:01;13.10;99.90
11991;DHT22;6055;52.522;13.446;2022-10-22T05:31:27;13.10;99.90
11991;DHT22;6055;52.522;13.446;2022-10-22T05:33:53;13.10;99.90
11991;DHT22;6055;52.522;13.446;2022-10-22T05:36:20;13.10;99.90
11991;DHT22;6055;52.522;13.446;2022-10-22T05:38:46;13.10;99.90
11991;DHT22;6055;52.522;13.446;2022-10-22T05:41:14;13.10;99.90
11991;DHT22;6055;52.522;13.446;2022-10-22T05:43:40;13.10;99.90
11991;DHT22;6055;52.522;13.446;2022-10-22T05:46:18;13.10;99.90
11991;DHT22;6055;52.522;13.446;2022-10-22T05:48:47;13.10;99.90
11991;DHT22;6055;52.522;13.446;2022-10-22T05:51:12;13.10;99.90
11991;DHT22;6055;52.522;13.446;2022-10-22T05:53:40;13.00;99.90
11991;DHT22;6055;52.522;13.446;2022-10-22T05:56:09;13.00;99.90
11991;DHT22;6055;52.522;13.446;2022-10-22T05:58:35;13.00;99.90
11991;DHT22;6055;52.522;13.446;2022-10-22T06:01:07;13.00;99.90
11991;DHT22;6055;52.522;13.446;2022-10-22T06:03:33;13.00;99.90
11991;DHT22;6055;52.522;13.446;2022-10-22T06:06:00;13.00;99.90
11991;DHT22;6055;52.522;13.446;2022-10-22T06:08:27;13.00;99.90
11991;DHT22;6055;52.522;13.446;2022-10-22T06:10:53;13.00;99.90
11991;DHT22;6055;52.522;13.446;2022-10-22T06:13:18;13.00;99.90
11991;DHT22;6055;52.522;13.446;2022-10-22T06:15:44;13.00;99.90
11991;DHT22;6055;52.522;13.446;2022-10-22T06:18:09;13.00;99.90
11991;DHT22;6055;52.522;13.446;2022-10-22T06:20:35;13.00;99.90
11991;DHT22;6055;52.522;13.446;2022-10-22T06:23:01;13.00;99.90
11991;DHT22;6055;52.522;13.446;2022-10-22T06:25:26;13.00;99.90
11991;DHT22;6055;52.522;13.446;2022-10-22T06:27:52;13.00;99.90
11991;DHT22;6055;52.522;13.446;2022-10-22T06:30:17;13.00;99.90
11991;DHT22;6055;52.522;13.446;2022-10-22T06:32:42;13.00;99.90
11991;DHT22;6055;52.522;13.446;2022-10-22T06:35:08;13.00;99.90
11991;DHT22;6055;52.522;13.446;2022-10-22T06:37:33;13.00;99.90
11991;DHT22;6055;52.522;13.446;2022-10-22T06:39:59;13.10;99.90
11991;DHT22;6055;52.522;13.446;2022-10-22T06:42:24;13.20;99.90
11991;DHT22;6055;52.522;13.446;2022-10-22T06:44:51;13.20;99.90
11991;DHT22;6055;52.522;13.446;2022-10-22T06:47:17;13.20;99.90
11991;DHT22;6055;52.522;13.446;2022-10-22T06:49:42;13.30;99.90
11991;DHT22;6055;52.522;13.446;2022-10-22T06:52:07;13.30;99.90
11991;DHT22;6055;52.522;13.446;2022-10-22T06:54:33;13.30;99.90
11991;DHT22;6055;52.522;13.446;2022-10-22T06:56:58;13.30;99.90
11991;DHT22;6055;52.522;13.446;2022-10-22T06:59:24;13.40;99.90
11991;DHT22;6055;52.522;13.446;2022-10-22T07:01:49;13.30;99.90
11991;DHT22;6055;52.522;13.446;2022-10-22T07:04:15;13.40;99.90
11991;DHT22;6055;52.522;13.446;2022-10-22T07:06:40;13.40;99.90
11991;DHT22;6055;52.522;13.446;2022-10-22T07:09:06;13.40;99.90
11991;DHT22;6055;52.522;13.446;2022-10-22T07:11:41;13.50;99.90
11991;DHT22;6055;52.522;13.446;2022-10-22T07:14:08;13.50;99.90
11991;DHT22;6055;52.522;13.446;2022-10-22T07:16:33;13.50;99.90
11991;DHT22;6055;52.522;13.446;2022-10-22T07:19:00;13.50;99.90
11991;DHT22;6055;52.522;13.446;2022-10-22T07:21:25;13.50;99.90
11991;DHT22;6055;52.522;13.446;2022-10-22T07:23:51;13.50;99.90
11991;DHT22;6055;52.522;13.446;2022-10-22T07:26:17;13.50;99.90
11991;DHT22;6055;52.522;13.446;2022-10-22T07:28:45;13.50;99.90
11991;DHT22;6055;52.522;13.446;2022-10-22T07:31:12;13.60;99.90
11991;DHT22;6055;52.522;13.446;2022-10-22T07:33:38;13.60;99.90
11991;DHT22;6055;52.522;13.446;2022-10-22T07:36:06;13.70;99.90
11991;DHT22;6055;52.522;13.446;2022-10-22T07:38:32;13.70;99.90
11991;DHT22;6055;52.522;13.446;2022-10-22T07:40:58;13.80;99.90
11991;DHT22;6055;52.522;13.446;2022-10-22T07:43:24;13.80;99.90
11991;DHT22;6055;52.522;13.446;2022-10-22T07:45:49;13.80;99.90
11991;DHT22;6055;52.522;13.446;2022-10-22T07:48:15;13.90;99.90
11991;DHT22;6055;52.522;13.446;2022-10-22T07:50:41;13.90;99.90
11991;DHT22;6055;52.522;13.446;2022-10-22T07:53:06;14.00;99.90
11991;DHT22;6055;52.522;13.446;2022-10-22T07:55:33;14.00;99.90
11991;DHT22;6055;52.522;13.446;2022-10-22T07:57:59;14.00;99.90
11991;DHT22;6055;52.522;13.446;2022-10-22T08:00:24;14.00;99.90
11991;DHT22;6055;52.522;13.446;2022-10-22T08:02:50;13.90;99.90
11991;DHT22;6055;52.522;13.446;2022-10-22T08:05:15;14.00;99.90
11991;DHT22;6055;52.522;13.446;2022-10-22T08:07:41;14.00;99.90
11991;DHT22;6055;52.522;13.446;2022-10-22T08:10:08;14.00;99.90
11991;DHT22;6055;52.522;13.446;2022-10-22T08:12:34;14.00;99.90
11991;DHT22;6055;52.522;13.446;2022-10-22T08:14:59;14.00;99.90
11991;DHT22;6055;52.522;13.446;2022-10-22T08:17:25;14.10;99.90
11991;DHT22;6055;52.522;13.446;2022-10-22T08:19:51;14.00;99.90
11991;DHT22;6055;52.522;13.446;2022-10-22T08:22:16;14.10;99.90
11991;DHT22;6055;52.522;13.446;2022-10-22T08:24:42;14.10;99.90
11991;DHT22;6055;52.522;13.446;2022-10-22T08:27:07;14.20;99.90
11991;DHT22;6055;52.522;13.446;2022-10-22T08:29:33;14.20;99.90
11991;DHT22;6055;52.522;13.446;2022-10-22T08:31:58;14.30;99.90
11991;DHT22;6055;52.522;13.446;2022-10-22T08:34:27;14.30;99.90
11991;DHT22;6055;52.522;13.446;2022-10-22T08:36:52;14.30;99.90
11991;DHT22;6055;52.522;13.446;2022-10-22T08:39:18;14.20;99.90
11991;DHT22;6055;52.522;13.446;2022-10-22T08:47:44;14.20;99.90
11991;DHT22;6055;52.522;13.446;2022-10-22T08:50:22;14.20;99.90
11991;DHT22;6055;52.522;13.446;2022-10-22T08:52:52;14.30;99.90
11991;DHT22;6055;52.522;13.446;2022-10-22T08:55:19;14.30;99.90
11991;DHT22;6055;52.522;13.446;2022-10-22T08:57:54;14.30;99.90
11991;DHT22;6055;52.522;13.446;2022-10-22T09:03:26;14.40;99.90
11991;DHT22;6055;52.522;13.446;2022-10-22T09:06:17;14.50;99.90
11991;DHT22;6055;52.522;13.446;2022-10-22T09:08:45;14.50;99.90
11991;DHT22;6055;52.522;13.446;2022-10-22T09:11:34;14.50;99.90
11991;DHT22;6055;52.522;13.446;2022-10-22T09:14:00;14.60;99.90
11991;DHT22;6055;52.522;13.446;2022-10-22T09:16:36;14.60;99.90
11991;DHT22;6055;52.522;13.446;2022-10-22T09:24:39;14.70;99.90
11991;DHT22;6055;52.522;13.446;2022-10-22T09:27:21;14.80;99.90
11991;DHT22;6055;52.522;13.446;2022-10-22T09:29:50;14.80;99.90
11991;DHT22;6055;52.522;13.446;2022-10-22T09:32:16;14.90;99.90
11991;DHT22;6055;52.522;13.446;2022-10-22T09:34:48;14.90;99.90
11991;DHT22;6055;52.522;13.446;2022-10-22T09:37:17;15.00;99.90
11991;DHT22;6055;52.522;13.446;2022-10-22T09:39:46;15.10;99.90
11991;DHT22;6055;52.522;13.446;2022-10-22T09:42:16;15.10;99.90
11991;DHT22;6055;52.522;13.446;2022-10-22T09:44:42;15.20;99.90
11991;DHT22;6055;52.522;13.446;2022-10-22T09:47:36;15.20;99.90
11991;DHT22;6055;52.522;13.446;2022-10-22T09:50:28;15.30;99.90
11991;DHT22;6055;52.522;13.446;2022-10-22T09:53:17;15.30;99.90
11991;DHT22;6055;52.522;13.446;2022-10-22T09:55:44;15.40;99.90
11991;DHT22;6055;52.522;13.446;2022-10-22T09:58:13;15.40;99.90
11991;DHT22;6055;52.522;13.446;2022-10-22T10:00:40;15.50;99.90
11991;DHT22;6055;52.522;13.446;2022-10-22T10:03:16;15.60;99.90
11991;DHT22;6055;52.522;13.446;2022-10-22T10:05:46;15.60;99.90
11991;DHT22;6055;52.522;13.446;2022-10-22T10:08:15;15.60;99.90
11991;DHT22;6055;52.522;13.446;2022-10-22T10:10:48;15.60;99.90
11991;DHT22;6055;52.522;13.446;2022-10-22T10:16:29;15.50;99.90
11991;DHT22;6055;52.522;13.446;2022-10-22T10:19:26;15.50;99.90
11991;DHT22;6055;52.522;13.446;2022-10-22T10:22:28;15.50;99.90
11991;DHT22;6055;52.522;13.446;2022-10-22T10:25:17;15.50;99.90
11991;DHT22;6055;52.522;13.446;2022-10-22T10:28:19;15.40;99.90
11991;DHT22;6055;52.522;13.446;2022-10-22T10:33:44;15.40;99.90
11991;DHT22;6055;52.522;13.446;2022-10-22T10:36:24;15.40;99.90
11991;DHT22;6055;52.522;13.446;2022-10-22T10:39:00;15.50;99.90
11991;DHT22;6055;52.522;13.446;2022-10-22T10:44:24;15.60;99.90
11991;DHT22;6055;52.522;13.446;2022-10-22T10:47:20;15.60;99.90
11991;DHT22;6055;52.522;13.446;2022-10-22T10:49:54;15.70;99.90
11991;DHT22;6055;52.522;13.446;2022-10-22T10:52:44;15.70;99.90
11991;DHT22;6055;52.522;13.446;2022-10-22T10:55:24;15.80;99.90
11991;DHT22;6055;52.522;13.446;2022-10-22T10:58:20;15.70;99.90
11991;DHT22;6055;52.522;13.446;2022-10-22T11:00:56;15.70;99.90
11991;DHT22;6055;52.522;13.446;2022-10-22T11:03:39;15.80;99.90
11991;DHT22;6055;52.522;13.446;2022-10-22T11:06:11;16.00;99.90
11991;DHT22;6055;52.522;13.446;2022-10-22T11:08:47;16.20;99.90
11991;DHT22;6055;52.522;13.446;2022-10-22T11:11:31;16.40;99.90
11991;DHT22;6055;52.522;13.446;2022-10-22T11:14:28;16.60;99.90
11991;DHT22;6055;52.522;13.446;2022-10-22T11:17:12;16.80;99.90
11991;DHT22;6055;52.522;13.446;2022-10-22T11:19:52;16.90;99.90
11991;DHT22;6055;52.522;13.446;2022-10-22T11:22:35;17.00;99.90
11991;DHT22;6055;52.522;13.446;2022-10-22T11:25:20;16.90;99.90
11991;DHT22;6055;52.522;13.446;2022-10-22T11:27:52;17.10;99.90
11991;DHT22;6055;52.522;13.446;2022-10-22T11:30:21;17.10;99.90
11991;DHT22;6055;52.522;13.446;2022-10-22T11:32:52;17.10;99.90
11991;DHT22;6055;52.522;13.446;2022-10-22T11:35:23;17.30;99.90
11991;DHT22;6055;52.522;13.446;2022-10-22T11:37:50;17.40;99.90
11991;DHT22;6055;52.522;13.446;2022-10-22T11:40:21;17.50;99.90
11991;DHT22;6055;52.522;13.446;2022-10-22T11:42:53;17.40;99.90
11991;DHT22;6055;52.522;13.446;2022-10-22T11:55:45;18.40;99.90
11991;DHT22;6055;52.522;13.446;2022-10-22T11:58:34;18.60;99.90
11991;DHT22;6055;52.522;13.446;2022-10-22T12:03:39;19.30;99.90
11991;DHT22;6055;52.522;13.446;2022-10-22T12:11:39;19.10;99.90
11991;DHT22;6055;52.522;13.446;2022-10-22T12:14:19;18.70;99.90
11991;DHT22;6055;52.522;13.446;2022-10-22T12:21:59;18.00;99.90
11991;DHT22;6055;52.522;13.446;2022-10-22T12:24:30;17.90;99.90
11991;DHT22;6055;52.522;13.446;2022-10-22T12:26:56;18.00;99.90
11991;DHT22;6055;52.522;13.446;2022-10-22T12:29:21;18.40;99.90
11991;DHT22;6055;52.522;13.446;2022-10-22T12:31:49;19.10;99.90
11991;DHT22;6055;52.522;13.446;2022-10-22T12:34:17;20.10;99.90
11991;DHT22;6055;52.522;13.446;2022-10-22T12:36:44;21.20;99.90
11991;DHT22;6055;52.522;13.446;2022-10-22T12:39:16;22.00;99.90
11991;DHT22;6055;52.522;13.446;2022-10-22T12:41:42;22.70;99.90
11991;DHT22;6055;52.522;13.446;2022-10-22T12:44:14;22.80;99.90
11991;DHT22;6055;52.522;13.446;2022-10-22T12:46:40;23.30;99.90
11991;DHT22;6055;52.522;13.446;2022-10-22T12:49:21;23.70;99.90
11991;DHT22;6055;52.522;13.446;2022-10-22T12:51:47;23.70;99.90
11991;DHT22;6055;52.522;13.446;2022-10-22T12:54:26;23.60;99.90
11991;DHT22;6055;52.522;13.446;2022-10-22T12:56:53;23.40;99.90
11991;DHT22;6055;52.522;13.446;2022-10-22T12:59:25;23.40;99.90
11991;DHT22;6055;52.522;13.446;2022-10-22T13:01:51;23.60;99.90
11991;DHT22;6055;52.522;13.446;2022-10-22T13:04:32;23.60;99.90
11991;DHT22;6055;52.522;13.446;2022-10-22T13:07:16;23.80;99.90
11991;DHT22;6055;52.522;13.446;2022-10-22T13:09:57;24.20;99.90
11991;DHT22;6055;52.522;13.446;2022-10-22T13:12:27;24.10;99.90
11991;DHT22;6055;52.522;13.446;2022-10-22T13:15:18;23.70;99.90
11991;DHT22;6055;52.522;13.446;2022-10-22T13:17:43;23.40;99.90
11991;DHT22;6055;52.522;13.446;2022-10-22T13:20:21;23.20;99.90
11991;DHT22;6055;52.522;13.446;2022-10-22T13:23:04;23.10;99.90
11991;DHT22;6055;52.522;13.446;2022-10-22T13:25:35;22.80;99.90
11991;DHT22;6055;52.522;13.446;2022-10-22T13:28:18;22.80;99.90
11991;DHT22;6055;52.522;13.446;2022-10-22T13:30:53;22.70;99.90
11991;DHT22;6055;52.522;13.446;2022-10-22T13:35:53;22.00;99.90
11991;DHT22;6055;52.522;13.446;2022-10-22T13:38:21;22.10;99.90
11991;DHT22;6055;52.522;13.446;2022-10-22T13:40:47;21.60;99.90
11991;DHT22;6055;52.522;13.446;2022-10-22T13:43:14;21.50;99.90
11991;DHT22;6055;52.522;13.446;2022-10-22T13:45:40;21.50;99.90
11991;DHT22;6055;52.522;13.446;2022-10-22T13:48:11;21.70;99.90
11991;DHT22;6055;52.522;13.446;2022-10-22T13:50:38;21.70;99.90
11991;DHT22;6055;52.522;13.446;2022-10-22T13:53:03;21.90;99.90
11991;DHT22;6055;52.522;13.446;2022-10-22T13:55:29;22.30;99.90
11991;DHT22;6055;52.522;13.446;2022-10-22T13:58:00;22.70;99.90
11991;DHT22;6055;52.522;13.446;2022-10-22T14:00:28;22.50;99.90
11991;DHT22;6055;52.522;13.446;2022-10-22T14:02:56;22.40;99.90
11991;DHT22;6055;52.522;13.446;2022-10-22T14:05:22;22.60;99.90
11991;DHT22;6055;52.522;13.446;2022-10-22T14:07:48;23.00;99.90
11991;DHT22;6055;52.522;13.446;2022-10-22T14:10:16;23.30;99.90
11991;DHT22;6055;52.522;13.446;2022-10-22T14:12:42;23.30;99.90
11991;DHT22;6055;52.522;13.446;2022-10-22T14:15:10;23.40;99.90
11991;DHT22;6055;52.522;13.446;2022-10-22T14:17:37;23.50;99.90
11991;DHT22;6055;52.522;13.446;2022-10-22T14:20:03;23.30;99.90
11991;DHT22;6055;52.522;13.446;2022-10-22T14:22:29;23.30;99.90
11991;DHT22;6055;52.522;13.446;2022-10-22T14:24:55;23.00;99.90
11991;DHT22;6055;52.522;13.446;2022-10-22T14:27:20;22.10;99.90
11991;DHT22;6055;52.522;13.446;2022-10-22T14:29:46;21.90;99.90
11991;DHT22;6055;52.522;13.446;2022-10-22T14:32:16;21.70;99.90
11991;DHT22;6055;52.522;13.446;2022-10-22T14:34:44;21.60;99.90
11991;DHT22;6055;52.522;13.446;2022-10-22T14:37:16;21.50;99.90
11991;DHT22;6055;52.522;13.446;2022-10-22T14:39:42;21.20;99.90
11991;DHT22;6055;52.522;13.446;2022-10-22T14:42:11;20.90;99.90
11991;DHT22;6055;52.522;13.446;2022-10-22T14:44:37;20.50;99.90
11991;DHT22;6055;52.522;13.446;2022-10-22T14:47:02;20.20;99.90
11991;DHT22;6055;52.522;13.446;2022-10-22T14:49:28;19.80;99.90
11991;DHT22;6055;52.522;13.446;2022-10-22T14:51:53;19.50;99.90
11991;DHT22;6055;52.522;13.446;2022-10-22T14:54:19;19.30;99.90
11991;DHT22;6055;52.522;13.446;2022-10-22T14:56:44;19.20;99.90
11991;DHT22;6055;52.522;13.446;2022-10-22T14:59:10;19.20;99.90
11991;DHT22;6055;52.522;13.446;2022-10-22T15:01:35;19.10;99.90
11991;DHT22;6055;52.522;13.446;2022-10-22T15:04:01;19.00;99.90
11991;DHT22;6055;52.522;13.446;2022-10-22T15:06:26;19.00;99.90
11991;DHT22;6055;52.522;13.446;2022-10-22T15:08:52;18.90;99.90
11991;DHT22;6055;52.522;13.446;2022-10-22T15:11:17;18.90;99.90
11991;DHT22;6055;52.522;13.446;2022-10-22T15:13:43;18.90;99.90
11991;DHT22;6055;52.522;13.446;2022-10-22T15:16:10;18.90;99.90
11991;DHT22;6055;52.522;13.446;2022-10-22T15:18:36;18.80;99.90
11991;DHT22;6055;52.522;13.446;2022-10-22T15:21:06;18.80;99.90
11991;DHT22;6055;52.522;13.446;2022-10-22T15:23:32;18.70;99.90
11991;DHT22;6055;52.522;13.446;2022-10-22T15:25:58;18.70;99.90
11991;DHT22;6055;52.522;13.446;2022-10-22T15:28:24;18.60;99.90
11991;DHT22;6055;52.522;13.446;2022-10-22T15:30:58;18.50;99.90
11991;DHT22;6055;52.522;13.446;2022-10-22T15:33:23;18.50;99.90
11991;DHT22;6055;52.522;13.446;2022-10-22T15:35:49;18.30;99.90
11991;DHT22;6055;52.522;13.446;2022-10-22T15:38:15;18.30;99.90
11991;DHT22;6055;52.522;13.446;2022-10-22T15:40:40;18.10;99.90
11991;DHT22;6055;52.522;13.446;2022-10-22T15:43:06;17.90;99.90
11991;DHT22;6055;52.522;13.446;2022-10-22T15:45:32;17.80;99.90
11991;DHT22;6055;52.522;13.446;2022-10-22T15:47:57;17.70;99.90
11991;DHT22;6055;52.522;13.446;2022-10-22T15:50:23;17.60;99.90
11991;DHT22;6055;52.522;13.446;2022-10-22T15:52:48;17.50;99.90
11991;DHT22;6055;52.522;13.446;2022-10-22T15:55:14;17.40;99.90
11991;DHT22;6055;52.522;13.446;2022-10-22T15:57:39;17.30;99.90
11991;DHT22;6055;52.522;13.446;2022-10-22T16:00:06;17.20;99.90
11991;DHT22;6055;52.522;13.446;2022-10-22T16:02:32;17.10;99.90
11991;DHT22;6055;52.522;13.446;2022-10-22T16:04:57;17.00;99.90
11991;DHT22;6055;52.522;13.446;2022-10-22T16:07:24;17.00;99.90
11991;DHT22;6055;52.522;13.446;2022-10-22T16:09:50;16.90;99.90
11991;DHT22;6055;52.522;13.446;2022-10-22T16:12:15;16.90;99.90
11991;DHT22;6055;52.522;13.446;2022-10-22T16:14:41;16.90;99.90
11991;DHT22;6055;52.522;13.446;2022-10-22T16:17:06;16.80;99.90
11991;DHT22;6055;52.522;13.446;2022-10-22T16:19:32;16.70;99.90
11991;DHT22;6055;52.522;13.446;2022-10-22T16:21:57;16.70;99.90
11991;DHT22;6055;52.522;13.446;2022-10-22T16:24:25;16.70;99.90
11991;DHT22;6055;52.522;13.446;2022-10-22T16:26:51;16.60;99.90
11991;DHT22;6055;52.522;13.446;2022-10-22T16:29:17;16.60;99.90
11991;DHT22;6055;52.522;13.446;2022-10-22T16:31:43;16.50;99.90
11991;DHT22;6055;52.522;13.446;2022-10-22T16:34:10;16.50;99.90
11991;DHT22;6055;52.522;13.446;2022-10-22T16:36:36;16.50;99.90
11991;DHT22;6055;52.522;13.446;2022-10-22T16:39:02;16.40;99.90
11991;DHT22;6055;52.522;13.446;2022-10-22T16:41:28;16.40;99.90
11991;DHT22;6055;52.522;13.446;2022-10-22T16:44:00;16.40;99.90
11991;DHT22;6055;52.522;13.446;2022-10-22T16:46:27;16.40;99.90
11991;DHT22;6055;52.522;13.446;2022-10-22T16:48:53;16.40;99.90
11991;DHT22;6055;52.522;13.446;2022-10-22T16:51:21;16.30;99.90
11991;DHT22;6055;52.522;13.446;2022-10-22T16:53:46;16.30;99.90
11991;DHT22;6055;52.522;13.446;2022-10-22T16:56:14;16.30;99.90
11991;DHT22;6055;52.522;13.446;2022-10-22T16:58:44;16.20;99.90